createdAt,value
2018-05-29T00:00:38.551Z,70.62
2018-05-29T00:03:04.322Z,70.73
2018-05-29T00:05:30.079Z,70.90
2018-05-29T00:07:55.843Z,70.94
2018-05-29T00:10:21.607Z,71.03
2018-05-29T00:12:47.391Z,71.07
2018-05-29T00:15:13.139Z,71.09
2018-05-29T00:17:38.912Z,71.21
2018-05-29T00:20:04.669Z,71.20
2018-05-29T00:22:30.479Z,71.22
2018-05-29T00:24:56.228Z,71.32
2018-05-29T00:27:22.000Z,71.45
2018-05-29T00:29:47.771Z,71.58
2018-05-29T00:32:13.520Z,71.70
2018-05-29T00:34:39.312Z,71.71
2018-05-29T00:37:05.055Z,71.68
2018-05-29T00:39:30.820Z,71.74
2018-05-29T00:41:56.575Z,71.77
2018-05-29T00:44:22.349Z,71.71
2018-05-29T00:46:48.099Z,71.63
2018-05-29T00:49:13.895Z,71.62
2018-05-29T00:51:39.639Z,71.57
2018-05-29T00:54:05.512Z,71.57
2018-05-29T00:56:31.259Z,71.64
2018-05-29T00:58:57.016Z,71.72
2018-05-29T01:01:22.775Z,71.75
2018-05-29T01:03:48.775Z,71.80
2018-05-29T01:06:14.524Z,71.91
2018-05-29T01:08:40.305Z,71.97
2018-05-29T01:11:06.061Z,71.99
2018-05-29T01:13:31.910Z,72.28
2018-05-29T01:15:57.670Z,72.40
2018-05-29T01:18:23.428Z,72.46
2018-05-29T01:20:49.217Z,72.64
2018-05-29T01:23:14.960Z,72.70
2018-05-29T01:25:40.759Z,72.53
2018-05-29T01:28:06.515Z,72.43
2018-05-29T01:30:32.303Z,72.29
2018-05-29T01:32:58.069Z,72.21
2018-05-29T01:35:23.834Z,72.24
2018-05-29T01:37:49.599Z,72.20
2018-05-29T01:40:15.409Z,72.06
2018-05-29T01:42:41.179Z,71.89
2018-05-29T01:45:06.965Z,71.70
2018-05-29T01:47:32.751Z,71.50
2018-05-29T01:49:58.529Z,71.26
2018-05-29T01:52:24.279Z,70.94
2018-05-29T01:54:50.140Z,70.80
2018-05-29T01:57:15.887Z,70.56
2018-05-29T01:59:41.680Z,70.30
2018-05-29T02:02:07.419Z,70.08
2018-05-29T02:04:33.282Z,69.84
2018-05-29T02:06:58.980Z,69.74
2018-05-29T02:09:24.765Z,69.62
2018-05-29T02:11:50.512Z,69.46
2018-05-29T02:14:16.274Z,69.38
2018-05-29T02:16:42.044Z,69.25
2018-05-29T02:19:07.823Z,69.26
2018-05-29T02:21:33.567Z,69.14
2018-05-29T02:23:59.470Z,69.01
2018-05-29T02:26:25.336Z,68.96
2018-05-29T02:28:51.084Z,68.95
2018-05-29T02:31:16.839Z,68.80
2018-05-29T02:33:42.592Z,68.77
2018-05-29T02:36:08.376Z,68.68
2018-05-29T02:38:34.111Z,68.57
2018-05-29T02:41:00.012Z,68.39
2018-05-29T02:43:25.772Z,68.31
2018-05-29T02:45:51.544Z,68.22
2018-05-29T02:48:17.287Z,68.21
2018-05-29T02:50:43.058Z,68.19
2018-05-29T02:53:08.804Z,68.22
2018-05-29T02:55:34.578Z,68.19
2018-05-29T02:58:00.320Z,68.29
2018-05-29T03:00:26.120Z,68.28
2018-05-29T03:02:51.895Z,68.37
2018-05-29T03:05:17.729Z,68.45
2018-05-29T03:07:43.472Z,68.47
2018-05-29T03:10:09.229Z,68.49
2018-05-29T03:12:35.008Z,68.55
2018-05-29T03:15:00.775Z,68.66
2018-05-29T03:17:26.515Z,68.68
2018-05-29T03:19:52.264Z,68.73
2018-05-29T03:22:18.013Z,68.72
2018-05-29T03:24:43.797Z,68.64
2018-05-29T03:27:09.784Z,68.55
2018-05-29T03:29:35.535Z,68.50
2018-05-29T03:32:01.328Z,68.53
2018-05-29T03:34:27.092Z,68.64
2018-05-29T03:36:52.816Z,68.58
2018-05-29T03:39:18.985Z,68.60
2018-05-29T03:41:44.755Z,68.55
2018-05-29T03:44:10.775Z,68.71
2018-05-29T03:46:36.546Z,68.66
2018-05-29T03:49:02.294Z,68.66
2018-05-29T03:51:28.051Z,68.60
2018-05-29T03:53:53.803Z,68.59
2018-05-29T03:56:19.563Z,68.52
2018-05-29T03:58:45.339Z,68.52
2018-05-29T04:01:11.117Z,68.43
2018-05-29T04:03:36.863Z,68.34
2018-05-29T04:06:02.706Z,68.34
2018-05-29T04:08:28.506Z,68.33
2018-05-29T04:10:54.507Z,68.28
2018-05-29T04:13:20.276Z,68.27
2018-05-29T04:15:46.064Z,68.29
2018-05-29T04:18:11.931Z,68.22
2018-05-29T04:20:37.690Z,68.07
2018-05-29T04:23:03.448Z,67.89
2018-05-29T04:25:29.208Z,67.86
2018-05-29T04:27:54.964Z,67.77
2018-05-29T04:30:20.728Z,67.64
2018-05-29T04:32:46.503Z,67.46
2018-05-29T04:35:12.238Z,67.36
2018-05-29T04:37:38.002Z,67.34
2018-05-29T04:40:03.759Z,67.35
2018-05-29T04:42:29.544Z,67.33
2018-05-29T04:44:55.317Z,67.32
2018-05-29T04:47:21.085Z,67.26
2018-05-29T04:49:46.971Z,67.11
2018-05-29T04:52:12.746Z,66.94
2018-05-29T04:54:38.543Z,66.64
2018-05-29T04:57:04.312Z,66.25
2018-05-29T04:59:30.055Z,66.07
2018-05-29T05:01:55.809Z,65.83
2018-05-29T05:04:21.570Z,65.59
2018-05-29T05:06:47.328Z,65.37
2018-05-29T05:09:13.076Z,65.01
2018-05-29T05:11:38.827Z,64.49
2018-05-29T05:14:04.595Z,64.36
2018-05-29T05:16:30.434Z,64.30
2018-05-29T05:18:56.203Z,64.15
2018-05-29T05:21:22.099Z,64.09
2018-05-29T05:23:47.863Z,64.03
2018-05-29T05:26:13.615Z,63.97
2018-05-29T05:28:39.372Z,63.57
2018-05-29T05:31:05.119Z,62.85
2018-05-29T05:33:30.884Z,62.60
2018-05-29T05:35:56.637Z,62.10
2018-05-29T05:38:22.399Z,62.04
2018-05-29T05:40:48.167Z,62.00
2018-05-29T05:43:13.983Z,62.16
2018-05-29T05:45:39.729Z,62.06
2018-05-29T05:48:05.501Z,61.90
2018-05-29T05:50:31.292Z,61.82
2018-05-29T05:52:57.080Z,62.08
2018-05-29T05:55:23.283Z,61.65
2018-05-29T05:57:49.045Z,61.31
2018-05-29T06:00:14.901Z,61.33
2018-05-29T06:02:40.667Z,61.24
2018-05-29T06:05:06.569Z,61.00
2018-05-29T06:07:32.322Z,61.10
2018-05-29T06:09:58.079Z,60.61
2018-05-29T06:12:23.829Z,60.66
2018-05-29T06:14:49.600Z,61.13
2018-05-29T06:17:15.371Z,60.79
2018-05-29T06:19:41.124Z,60.42
2018-05-29T06:22:07.063Z,60.31
2018-05-29T06:24:32.819Z,60.33
2018-05-29T06:26:58.571Z,59.91
2018-05-29T06:29:24.414Z,59.43
2018-05-29T06:31:50.183Z,58.71
2018-05-29T06:34:15.948Z,58.81
2018-05-29T06:36:41.703Z,57.15
2018-05-29T06:39:07.467Z,57.51
2018-05-29T06:41:33.220Z,57.41
2018-05-29T06:43:58.987Z,57.34
2018-05-29T06:46:24.739Z,56.68
2018-05-29T06:48:50.530Z,56.33
2018-05-29T06:51:16.429Z,56.66
2018-05-29T06:53:42.191Z,56.37
2018-05-29T06:56:07.943Z,56.62
2018-05-29T06:58:33.728Z,56.50
2018-05-29T07:00:59.479Z,55.74
2018-05-29T07:03:25.235Z,55.93
2018-05-29T07:05:51.007Z,55.87
2018-05-29T07:08:17.187Z,55.51
2018-05-29T07:10:43.031Z,55.02
2018-05-29T07:13:08.843Z,54.73
2018-05-29T07:15:34.592Z,54.83
2018-05-29T07:18:00.399Z,54.66
2018-05-29T07:20:26.135Z,54.99
2018-05-29T07:22:51.923Z,54.83
2018-05-29T07:25:17.674Z,54.80
2018-05-29T07:27:43.412Z,54.38
2018-05-29T07:30:09.172Z,54.46
2018-05-29T07:32:34.944Z,54.62
2018-05-29T07:35:00.826Z,54.00
2018-05-29T07:37:26.639Z,53.86
2018-05-29T07:39:52.392Z,53.20
2018-05-29T07:42:18.168Z,53.49
2018-05-29T07:44:43.927Z,53.63
2018-05-29T07:47:09.785Z,53.62
2018-05-29T07:49:35.555Z,53.40
2018-05-29T07:52:01.340Z,53.42
2018-05-29T07:54:27.109Z,53.61
2018-05-29T07:56:52.860Z,53.64
2018-05-29T07:59:18.628Z,53.42
2018-05-29T08:01:44.423Z,53.33
2018-05-29T08:04:10.196Z,52.88
2018-05-29T08:06:35.952Z,52.42
2018-05-29T08:09:01.759Z,52.56
2018-05-29T08:11:27.499Z,52.25
2018-05-29T08:13:53.267Z,51.82
2018-05-29T08:16:19.054Z,51.69
2018-05-29T08:18:44.805Z,51.77
2018-05-29T08:21:10.606Z,51.68
2018-05-29T08:23:36.373Z,51.51
2018-05-29T08:26:02.160Z,51.19
2018-05-29T08:28:27.911Z,50.90
2018-05-29T08:30:53.686Z,51.24
2018-05-29T08:33:19.432Z,50.15
2018-05-29T08:35:45.187Z,49.63
2018-05-29T08:38:11.056Z,49.86
2018-05-29T08:40:36.836Z,49.55
2018-05-29T08:43:02.587Z,49.71
2018-05-29T08:45:28.339Z,49.76
2018-05-29T08:47:54.075Z,49.47
2018-05-29T08:50:19.868Z,49.49
2018-05-29T08:52:45.620Z,48.10
2018-05-29T08:55:11.380Z,48.68
2018-05-29T08:57:37.132Z,48.69
2018-05-29T09:00:02.894Z,48.20
2018-05-29T09:02:28.664Z,47.70
2018-05-29T09:04:54.432Z,47.86
2018-05-29T09:07:20.271Z,46.72
2018-05-29T09:09:46.035Z,47.22
2018-05-29T09:12:11.784Z,47.38
2018-05-29T09:14:37.536Z,46.42
2018-05-29T09:17:03.304Z,46.69
2018-05-29T09:19:29.067Z,46.94
2018-05-29T09:21:54.839Z,46.68
2018-05-29T09:24:20.596Z,46.13
2018-05-29T09:26:46.348Z,45.67
2018-05-29T09:29:12.108Z,45.86
2018-05-29T09:31:37.884Z,45.48
2018-05-29T09:34:03.640Z,45.83
2018-05-29T09:36:29.395Z,44.95
2018-05-29T09:38:55.140Z,45.13
2018-05-29T09:41:20.912Z,44.39
2018-05-29T09:43:46.665Z,44.44
2018-05-29T09:46:12.428Z,43.67
2018-05-29T09:48:38.296Z,43.86
2018-05-29T09:51:04.071Z,44.30
2018-05-29T09:53:29.832Z,44.47
2018-05-29T09:55:55.695Z,44.67
2018-05-29T09:58:21.464Z,44.10
2018-05-29T10:00:48.061Z,44.12
2018-05-29T10:03:13.800Z,43.24
2018-05-29T10:05:39.558Z,41.81
2018-05-29T10:08:05.328Z,42.48
2018-05-29T10:10:31.084Z,42.53
2018-05-29T10:12:56.855Z,42.10
2018-05-29T10:15:22.600Z,41.42
2018-05-29T10:17:48.504Z,40.80
2018-05-29T10:20:14.255Z,39.42
2018-05-29T10:22:40.036Z,39.90
2018-05-29T10:25:05.800Z,39.24
2018-05-29T10:27:31.590Z,39.64
2018-05-29T10:29:57.367Z,38.88
2018-05-29T10:32:23.140Z,38.64
2018-05-29T10:34:48.999Z,38.66
2018-05-29T10:37:14.763Z,37.27
2018-05-29T10:39:40.551Z,37.26
2018-05-29T10:42:06.307Z,37.25
2018-05-29T10:44:32.100Z,37.22
2018-05-29T10:46:57.859Z,37.26
2018-05-29T10:49:23.616Z,37.28
2018-05-29T10:51:49.375Z,37.13
2018-05-29T10:54:15.120Z,36.45
2018-05-29T10:56:40.968Z,35.26
2018-05-29T10:59:06.737Z,34.68
2018-05-29T11:01:32.493Z,34.52
2018-05-29T11:03:58.235Z,35.15
2018-05-29T11:06:25.287Z,34.95
2018-05-29T11:08:51.035Z,35.44
2018-05-29T11:11:16.916Z,35.16
2018-05-29T11:13:42.667Z,34.63
2018-05-29T11:16:08.407Z,34.46
2018-05-29T11:18:34.157Z,34.83
2018-05-29T11:20:59.919Z,34.51
2018-05-29T11:23:26.604Z,33.54
2018-05-29T11:25:52.380Z,33.37
2018-05-29T11:28:18.407Z,34.06
2018-05-29T11:30:44.177Z,33.49
2018-05-29T11:33:09.952Z,32.48
2018-05-29T11:35:35.779Z,31.97
2018-05-29T11:38:01.543Z,32.39
2018-05-29T11:40:27.347Z,31.86
2018-05-29T11:42:53.132Z,30.95
2018-05-29T11:45:18.919Z,30.31
2018-05-29T11:47:44.705Z,30.33
2018-05-29T11:50:10.456Z,29.91
2018-05-29T11:52:36.246Z,30.00
2018-05-29T11:55:02.004Z,30.39
2018-05-29T11:57:27.831Z,30.28
2018-05-29T11:59:53.571Z,30.04
2018-05-29T12:02:19.364Z,29.63
2018-05-29T12:04:45.171Z,29.81
2018-05-29T12:07:10.917Z,30.57
2018-05-29T12:09:36.699Z,30.39
2018-05-29T12:12:14.648Z,30.53
2018-05-29T12:14:40.399Z,30.06
2018-05-29T12:17:06.147Z,30.00
2018-05-29T12:19:31.900Z,29.55
2018-05-29T12:21:57.671Z,29.85
2018-05-29T12:24:23.425Z,29.94
2018-05-29T12:26:49.223Z,28.90
2018-05-29T12:29:15.025Z,28.73
2018-05-29T12:31:40.816Z,29.61
2018-05-29T12:34:06.584Z,28.49
2018-05-29T12:36:32.340Z,28.34
2018-05-29T12:38:58.123Z,28.74
2018-05-29T12:41:23.904Z,28.54
2018-05-29T12:43:49.658Z,28.59
2018-05-29T12:46:15.492Z,29.01
2018-05-29T12:48:41.202Z,29.39
2018-05-29T12:51:06.951Z,29.83
2018-05-29T12:53:32.742Z,29.33
2018-05-29T12:55:58.546Z,29.24
2018-05-29T12:58:24.555Z,28.73
2018-05-29T13:00:50.315Z,29.13
2018-05-29T13:03:16.075Z,29.43
2018-05-29T13:05:41.939Z,28.58
2018-05-29T13:08:07.746Z,28.51
2018-05-29T13:10:33.502Z,29.04
2018-05-29T13:12:59.377Z,29.48
2018-05-29T13:15:25.143Z,29.47
2018-05-29T13:17:50.922Z,29.69
2018-05-29T13:20:16.823Z,30.43
2018-05-29T13:22:42.559Z,30.63
2018-05-29T13:25:08.318Z,29.53
2018-05-29T13:27:34.080Z,29.43
2018-05-29T13:29:59.851Z,29.55
2018-05-29T13:32:25.599Z,30.26
2018-05-29T13:34:51.367Z,30.70
2018-05-29T13:37:17.124Z,30.70
2018-05-29T13:39:43.053Z,30.90
2018-05-29T13:42:08.835Z,30.60
2018-05-29T13:44:34.583Z,30.97
2018-05-29T13:47:00.343Z,30.98
2018-05-29T13:49:26.155Z,30.66
2018-05-29T13:51:51.903Z,30.27
2018-05-29T13:54:17.656Z,29.82
2018-05-29T13:56:43.420Z,28.46
2018-05-29T13:59:09.179Z,28.34
2018-05-29T14:01:34.921Z,28.54
2018-05-29T14:04:00.686Z,28.11
2018-05-29T14:06:26.587Z,27.80
2018-05-29T14:08:52.408Z,27.89
2018-05-29T14:14:12.921Z,27.00
2018-05-29T14:16:38.667Z,27.03
2018-05-29T14:19:04.433Z,27.04
2018-05-29T14:21:30.174Z,27.10
2018-05-29T14:23:55.983Z,26.82
2018-05-29T14:26:21.782Z,27.11
2018-05-29T14:28:47.859Z,26.86
2018-05-29T14:31:13.595Z,26.74
2018-05-29T14:33:39.348Z,27.21
2018-05-29T14:36:05.112Z,26.57
2018-05-29T14:38:30.876Z,26.37
2018-05-29T14:40:56.671Z,25.59
2018-05-29T14:43:22.427Z,25.67
2018-05-29T14:45:48.188Z,25.58
2018-05-29T14:48:13.927Z,25.70
2018-05-29T14:50:39.710Z,26.07
2018-05-29T14:53:05.474Z,25.97
2018-05-29T14:55:31.240Z,25.70
2018-05-29T14:57:56.974Z,25.84
2018-05-29T15:00:22.743Z,26.36
2018-05-29T15:02:48.521Z,25.87
2018-05-29T15:05:14.279Z,26.71
2018-05-29T15:07:40.051Z,26.26
2018-05-29T15:10:05.812Z,26.48
2018-05-29T15:12:31.575Z,25.87
2018-05-29T15:14:57.329Z,26.04
2018-05-29T15:17:23.093Z,26.01
2018-05-29T15:20:03.806Z,26.08
2018-05-29T15:22:29.573Z,25.90
2018-05-29T15:24:55.462Z,26.39
2018-05-29T15:27:21.163Z,26.24
2018-05-29T15:29:46.947Z,25.97
2018-05-29T15:32:12.697Z,26.43
2018-05-29T15:34:38.471Z,26.46
2018-05-29T15:37:04.224Z,26.79
2018-05-29T15:39:29.995Z,26.62
2018-05-29T15:41:55.747Z,27.14
2018-05-29T15:44:21.515Z,27.11
2018-05-29T15:46:47.303Z,26.53
2018-05-29T15:49:13.055Z,26.38
2018-05-29T15:51:38.976Z,26.35
2018-05-29T15:54:04.744Z,26.40
2018-05-29T15:56:30.611Z,26.38
2018-05-29T15:58:56.376Z,26.54
2018-05-29T16:01:22.163Z,26.61
2018-05-29T16:03:47.923Z,26.92
2018-05-29T16:06:13.691Z,26.97
2018-05-29T16:08:39.467Z,25.97
2018-05-29T16:11:05.242Z,25.99
2018-05-29T16:13:30.991Z,26.00
2018-05-29T16:15:56.777Z,25.93
2018-05-29T16:18:22.549Z,26.53
2018-05-29T16:20:48.311Z,26.23
2018-05-29T16:23:14.048Z,26.54
2018-05-29T16:25:39.795Z,26.22
2018-05-29T16:28:05.694Z,26.36
2018-05-29T16:30:31.464Z,26.76
2018-05-29T16:32:57.219Z,26.81
2018-05-29T16:35:23.051Z,26.82
2018-05-29T16:37:48.796Z,26.43
2018-05-29T16:40:14.576Z,26.63
2018-05-29T16:42:40.331Z,26.49
2018-05-29T16:45:06.095Z,26.33
2018-05-29T16:47:31.847Z,26.68
2018-05-29T16:49:57.630Z,26.13
2018-05-29T16:52:23.387Z,26.47
2018-05-29T16:54:49.140Z,26.12
2018-05-29T16:57:14.883Z,26.31
2018-05-29T16:59:40.663Z,26.39
2018-05-29T17:02:06.427Z,26.30
2018-05-29T17:04:32.195Z,26.20
2018-05-29T17:06:57.968Z,26.21
2018-05-29T17:09:23.735Z,26.37
2018-05-29T17:11:49.511Z,26.77
2018-05-29T17:14:15.256Z,26.94
2018-05-29T17:16:41.055Z,26.72
2018-05-29T17:19:06.807Z,26.22
2018-05-29T17:21:32.568Z,26.52
2018-05-29T17:24:01.145Z,26.71
2018-05-29T17:26:26.932Z,26.75
2018-05-29T17:28:52.739Z,26.52
2018-05-29T17:31:18.503Z,26.82
2018-05-29T17:33:44.255Z,26.46
2018-05-29T17:36:10.023Z,26.33
2018-05-29T17:38:35.784Z,26.57
2018-05-29T17:41:01.592Z,26.55
2018-05-29T17:43:27.336Z,26.62
2018-05-29T17:45:53.093Z,26.93
2018-05-29T17:48:18.870Z,27.33
2018-05-29T17:50:44.627Z,28.50
2018-05-29T17:53:10.412Z,29.28
2018-05-29T17:55:36.166Z,29.64
2018-05-29T17:58:01.951Z,30.42
2018-05-29T18:00:27.723Z,30.76
2018-05-29T18:02:53.488Z,30.99
2018-05-29T18:05:19.271Z,31.11
2018-05-29T18:07:45.048Z,31.48
2018-05-29T18:10:10.803Z,31.91
2018-05-29T18:12:42.676Z,32.36
2018-05-29T18:15:08.436Z,32.79
2018-05-29T18:17:34.212Z,32.88
2018-05-29T18:19:59.967Z,33.04
2018-05-29T18:22:25.727Z,33.15
2018-05-29T18:24:51.468Z,33.19
2018-05-29T18:27:17.277Z,33.18
2018-05-29T18:29:43.050Z,33.39
2018-05-29T18:32:08.829Z,33.44
2018-05-29T18:34:34.579Z,33.65
2018-05-29T18:37:00.355Z,33.93
2018-05-29T18:39:26.112Z,34.00
2018-05-29T18:41:51.886Z,34.12
2018-05-29T18:44:17.631Z,34.34
2018-05-29T18:46:43.399Z,34.52
2018-05-29T18:49:09.250Z,34.68
2018-05-29T18:51:34.963Z,34.91
2018-05-29T18:54:00.708Z,35.05
2018-05-29T18:56:26.540Z,35.24
2018-05-29T18:58:52.284Z,35.62
2018-05-29T19:01:18.032Z,35.81
2018-05-29T19:03:43.796Z,36.08
2018-05-29T19:06:09.542Z,36.35
2018-05-29T19:08:35.292Z,36.63
2018-05-29T19:11:01.047Z,36.75
2018-05-29T19:13:26.875Z,37.00
2018-05-29T19:15:52.620Z,37.28
2018-05-29T19:18:18.772Z,37.48
2018-05-29T19:20:44.532Z,37.70
2018-05-29T19:23:10.352Z,37.67
2018-05-29T19:25:36.075Z,37.96
2018-05-29T19:28:01.840Z,38.08
2018-05-29T19:30:27.615Z,38.28
2018-05-29T19:32:53.390Z,38.41
2018-05-29T19:35:19.244Z,38.34
2018-05-29T19:37:44.935Z,38.46
2018-05-29T19:40:10.704Z,38.52
2018-05-29T19:42:36.479Z,38.54
2018-05-29T19:45:02.284Z,38.73
2018-05-29T19:47:28.059Z,38.77
2018-05-29T19:49:53.827Z,38.87
2018-05-29T19:52:19.642Z,39.01
2018-05-29T19:54:45.518Z,39.13
2018-05-29T19:57:11.384Z,39.28
2018-05-29T19:59:37.136Z,39.55
2018-05-29T20:02:02.900Z,39.54
2018-05-29T20:04:28.651Z,39.51
2018-05-29T20:06:54.439Z,39.71
2018-05-29T20:09:20.168Z,39.71
2018-05-29T20:11:45.955Z,39.63
2018-05-29T20:14:11.728Z,39.54
2018-05-29T20:16:37.483Z,39.53
2018-05-29T20:19:03.248Z,39.68
2018-05-29T20:21:29.003Z,39.78
2018-05-29T20:23:54.775Z,39.85
2018-05-29T20:26:20.527Z,39.93
2018-05-29T20:28:46.299Z,40.00
2018-05-29T20:31:12.054Z,40.10
2018-05-29T20:33:37.819Z,40.07
2018-05-29T20:36:03.576Z,40.05
2018-05-29T20:38:29.364Z,40.20
2018-05-29T20:40:55.128Z,40.05
2018-05-29T20:43:20.913Z,39.90
2018-05-29T20:45:46.683Z,39.95
2018-05-29T20:48:12.467Z,39.77
2018-05-29T20:50:38.224Z,39.70
2018-05-29T20:53:03.999Z,39.55
2018-05-29T20:55:29.750Z,39.67
2018-05-29T20:57:55.748Z,39.74
2018-05-29T21:00:21.507Z,39.92
2018-05-29T21:02:47.275Z,40.04
2018-05-29T21:05:13.079Z,40.25
2018-05-29T21:07:38.835Z,40.31
2018-05-29T21:10:04.671Z,40.38
2018-05-29T21:12:30.643Z,40.53
2018-05-29T21:14:56.400Z,40.60
2018-05-29T21:17:22.178Z,40.70
2018-05-29T21:19:47.931Z,40.89
2018-05-29T21:22:13.728Z,40.99
2018-05-29T21:24:39.636Z,41.18
2018-05-29T21:27:05.359Z,41.45
2018-05-29T21:29:31.127Z,41.71
2018-05-29T21:31:56.889Z,41.85
2018-05-29T21:34:22.712Z,42.03
2018-05-29T21:36:48.471Z,42.27
2018-05-29T21:39:14.229Z,42.53
2018-05-29T21:41:40.057Z,42.75
2018-05-29T21:44:05.819Z,42.97
2018-05-29T21:46:31.631Z,43.17
2018-05-29T21:48:57.347Z,43.47
2018-05-29T21:51:23.235Z,43.65
2018-05-29T21:53:49.011Z,43.96
2018-05-29T21:56:14.757Z,44.16
2018-05-29T21:58:40.538Z,44.32
2018-05-29T22:01:06.436Z,44.57
2018-05-29T22:03:32.222Z,44.84
2018-05-29T22:05:57.979Z,45.04
2018-05-29T22:08:23.758Z,45.17
2018-05-29T22:10:56.388Z,45.38
2018-05-29T22:13:22.150Z,45.53
2018-05-29T22:15:47.920Z,45.49
2018-05-29T22:18:13.671Z,45.56
2018-05-29T22:20:39.624Z,45.64
2018-05-29T22:23:05.382Z,45.68
2018-05-29T22:25:31.144Z,45.74
2018-05-29T22:27:56.932Z,45.85
2018-05-29T22:30:22.714Z,45.97
2018-05-29T22:32:48.467Z,46.03
2018-05-29T22:35:14.248Z,45.95
2018-05-29T22:40:36.831Z,46.13
2018-05-29T22:43:02.605Z,46.29
2018-05-29T22:45:28.366Z,46.21
2018-05-29T22:47:54.141Z,46.35
2018-05-29T22:50:19.987Z,46.44
2018-05-29T22:52:45.730Z,46.40
2018-05-29T22:55:11.506Z,46.51
2018-05-29T22:57:37.243Z,46.53
2018-05-29T23:00:03.012Z,46.60
2018-05-29T23:02:28.767Z,46.73
2018-05-29T23:04:54.526Z,46.86
2018-05-29T23:07:20.276Z,46.92
2018-05-29T23:09:46.058Z,47.04
2018-05-29T23:12:11.808Z,47.15
2018-05-29T23:14:37.568Z,47.32
2018-05-29T23:17:03.328Z,47.32
2018-05-29T23:19:29.088Z,47.46
2018-05-29T23:21:54.838Z,47.64
2018-05-29T23:24:20.612Z,47.62
2018-05-29T23:26:46.383Z,47.76
2018-05-29T23:29:12.254Z,47.91
2018-05-29T23:31:38.923Z,47.98
2018-05-29T23:34:04.680Z,48.05
2018-05-29T23:36:30.452Z,48.15
2018-05-29T23:38:56.269Z,48.28
2018-05-29T23:41:22.169Z,48.28
2018-05-29T23:43:47.935Z,48.41
2018-05-29T23:46:13.683Z,48.37
2018-05-29T23:48:39.479Z,48.45
2018-05-29T23:51:05.371Z,48.52
2018-05-29T23:53:31.122Z,48.64
2018-05-29T23:55:57.007Z,48.79
2018-05-29T23:58:22.746Z,49.04
